sensor_id;sensor_type;location;lat;lon;timestamp;P1;durP1;ratioP1;P2;durP2;ratioP2
33954;SDS011;20233;50.804;7.126;2023-04-15T00:01:58;9.65;;;3.28;;
33954;SDS011;20233;50.804;7.126;2023-04-15T00:04:24;5.13;;;2.78;;
33954;SDS011;20233;50.804;7.126;2023-04-15T00:06:50;5.63;;;2.55;;
33954;SDS011;20233;50.804;7.126;2023-04-15T00:09:19;5.80;;;2.50;;
33954;SDS011;20233;50.804;7.126;2023-04-15T00:11:45;6.70;;;2.88;;
33954;SDS011;20233;50.804;7.126;2023-04-15T00:14:11;7.57;;;2.90;;
33954;SDS011;20233;50.804;7.126;2023-04-15T00:16:37;6.72;;;3.05;;
33954;SDS011;20233;50.804;7.126;2023-04-15T00:19:02;9.18;;;3.50;;
33954;SDS011;20233;50.804;7.126;2023-04-15T00:21:28;8.63;;;2.80;;
33954;SDS011;20233;50.804;7.126;2023-04-15T00:23:54;6.45;;;2.72;;
33954;SDS011;20233;50.804;7.126;2023-04-15T00:26:20;6.35;;;2.67;;
33954;SDS011;20233;50.804;7.126;2023-04-15T00:28:46;7.22;;;3.13;;
33954;SDS011;20233;50.804;7.126;2023-04-15T00:31:11;6.97;;;3.13;;
33954;SDS011;20233;50.804;7.126;2023-04-15T00:33:37;5.72;;;3.00;;
33954;SDS011;20233;50.804;7.126;2023-04-15T00:36:03;8.75;;;2.83;;
33954;SDS011;20233;50.804;7.126;2023-04-15T00:38:30;7.05;;;3.17;;
33954;SDS011;20233;50.804;7.126;2023-04-15T00:40:55;6.88;;;2.90;;
33954;SDS011;20233;50.804;7.126;2023-04-15T00:43:21;7.20;;;3.17;;
33954;SDS011;20233;50.804;7.126;2023-04-15T00:45:47;7.57;;;2.58;;
33954;SDS011;20233;50.804;7.126;2023-04-15T00:48:12;8.13;;;3.17;;
33954;SDS011;20233;50.804;7.126;2023-04-15T00:50:38;8.98;;;2.70;;
33954;SDS011;20233;50.804;7.126;2023-04-15T00:53:03;7.55;;;2.92;;
33954;SDS011;20233;50.804;7.126;2023-04-15T00:55:29;8.70;;;3.08;;
33954;SDS011;20233;50.804;7.126;2023-04-15T00:57:55;8.77;;;3.03;;
33954;SDS011;20233;50.804;7.126;2023-04-15T01:00:21;7.03;;;3.08;;
33954;SDS011;20233;50.804;7.126;2023-04-15T01:02:47;8.25;;;2.70;;
33954;SDS011;20233;50.804;7.126;2023-04-15T01:05:13;9.32;;;2.83;;
33954;SDS011;20233;50.804;7.126;2023-04-15T01:07:41;8.80;;;2.55;;
33954;SDS011;20233;50.804;7.126;2023-04-15T01:10:07;5.80;;;2.40;;
33954;SDS011;20233;50.804;7.126;2023-04-15T01:12:33;8.95;;;3.05;;
33954;SDS011;20233;50.804;7.126;2023-04-15T01:14:59;8.68;;;3.00;;
33954;SDS011;20233;50.804;7.126;2023-04-15T01:17:27;6.68;;;2.60;;
33954;SDS011;20233;50.804;7.126;2023-04-15T01:19:54;7.93;;;3.15;;
33954;SDS011;20233;50.804;7.126;2023-04-15T01:22:22;6.35;;;2.80;;
33954;SDS011;20233;50.804;7.126;2023-04-15T01:25:00;6.10;;;2.70;;
33954;SDS011;20233;50.804;7.126;2023-04-15T01:27:33;6.97;;;2.65;;
33954;SDS011;20233;50.804;7.126;2023-04-15T01:30:00;5.13;;;2.20;;
33954;SDS011;20233;50.804;7.126;2023-04-15T01:32:29;7.65;;;2.65;;
33954;SDS011;20233;50.804;7.126;2023-04-15T01:34:55;7.95;;;4.10;;
33954;SDS011;20233;50.804;7.126;2023-04-15T01:37:21;8.82;;;2.45;;
33954;SDS011;20233;50.804;7.126;2023-04-15T01:39:47;6.57;;;2.58;;
33954;SDS011;20233;50.804;7.126;2023-04-15T01:42:12;7.60;;;2.65;;
33954;SDS011;20233;50.804;7.126;2023-04-15T01:44:38;9.45;;;3.45;;
33954;SDS011;20233;50.804;7.126;2023-04-15T01:47:03;5.05;;;2.30;;
33954;SDS011;20233;50.804;7.126;2023-04-15T01:49:29;11.82;;;3.22;;
33954;SDS011;20233;50.804;7.126;2023-04-15T01:51:56;7.82;;;3.17;;
33954;SDS011;20233;50.804;7.126;2023-04-15T01:54:21;5.95;;;2.60;;
33954;SDS011;20233;50.804;7.126;2023-04-15T01:56:47;5.82;;;2.22;;
33954;SDS011;20233;50.804;7.126;2023-04-15T01:59:12;7.00;;;2.88;;
33954;SDS011;20233;50.804;7.126;2023-04-15T02:01:38;6.13;;;3.03;;
33954;SDS011;20233;50.804;7.126;2023-04-15T02:04:04;5.20;;;2.83;;
33954;SDS011;20233;50.804;7.126;2023-04-15T02:06:31;7.53;;;4.30;;
33954;SDS011;20233;50.804;7.126;2023-04-15T02:08:57;7.28;;;3.28;;
33954;SDS011;20233;50.804;7.126;2023-04-15T02:11:23;7.30;;;3.45;;
33954;SDS011;20233;50.804;7.126;2023-04-15T02:13:48;8.65;;;2.38;;
33954;SDS011;20233;50.804;7.126;2023-04-15T02:16:14;7.88;;;3.20;;
33954;SDS011;20233;50.804;7.126;2023-04-15T02:18:44;6.78;;;2.70;;
33954;SDS011;20233;50.804;7.126;2023-04-15T02:21:10;6.57;;;2.75;;
33954;SDS011;20233;50.804;7.126;2023-04-15T02:23:36;8.30;;;3.50;;
33954;SDS011;20233;50.804;7.126;2023-04-15T02:26:02;7.05;;;3.25;;
33954;SDS011;20233;50.804;7.126;2023-04-15T02:28:28;6.30;;;2.97;;
33954;SDS011;20233;50.804;7.126;2023-04-15T02:30:53;6.22;;;2.70;;
33954;SDS011;20233;50.804;7.126;2023-04-15T02:33:21;6.90;;;2.50;;
33954;SDS011;20233;50.804;7.126;2023-04-15T02:35:47;6.28;;;2.75;;
33954;SDS011;20233;50.804;7.126;2023-04-15T02:38:13;8.20;;;3.05;;
33954;SDS011;20233;50.804;7.126;2023-04-15T02:40:40;10.35;;;3.42;;
33954;SDS011;20233;50.804;7.126;2023-04-15T02:43:06;7.80;;;3.35;;
33954;SDS011;20233;50.804;7.126;2023-04-15T02:45:34;9.88;;;3.97;;
33954;SDS011;20233;50.804;7.126;2023-04-15T02:48:00;6.13;;;2.97;;
33954;SDS011;20233;50.804;7.126;2023-04-15T02:50:30;9.20;;;3.42;;
33954;SDS011;20233;50.804;7.126;2023-04-15T02:52:55;5.43;;;3.10;;
33954;SDS011;20233;50.804;7.126;2023-04-15T02:55:21;6.32;;;2.70;;
33954;SDS011;20233;50.804;7.126;2023-04-15T02:57:47;5.30;;;2.72;;
33954;SDS011;20233;50.804;7.126;2023-04-15T03:00:12;8.02;;;3.35;;
33954;SDS011;20233;50.804;7.126;2023-04-15T03:02:38;7.50;;;3.20;;
33954;SDS011;20233;50.804;7.126;2023-04-15T03:05:06;8.10;;;3.80;;
33954;SDS011;20233;50.804;7.126;2023-04-15T03:07:35;6.18;;;3.47;;
33954;SDS011;20233;50.804;7.126;2023-04-15T03:10:01;7.45;;;3.20;;
33954;SDS011;20233;50.804;7.126;2023-04-15T03:12:26;10.50;;;3.75;;
33954;SDS011;20233;50.804;7.126;2023-04-15T03:14:53;9.15;;;3.10;;
33954;SDS011;20233;50.804;7.126;2023-04-15T03:17:18;10.00;;;3.55;;
33954;SDS011;20233;50.804;7.126;2023-04-15T03:19:44;8.52;;;3.33;;
33954;SDS011;20233;50.804;7.126;2023-04-15T03:22:10;9.88;;;2.85;;
33954;SDS011;20233;50.804;7.126;2023-04-15T03:24:36;8.63;;;3.17;;
33954;SDS011;20233;50.804;7.126;2023-04-15T03:27:02;7.15;;;3.05;;
33954;SDS011;20233;50.804;7.126;2023-04-15T03:29:27;7.05;;;2.78;;
33954;SDS011;20233;50.804;7.126;2023-04-15T03:31:53;6.03;;;3.88;;
33954;SDS011;20233;50.804;7.126;2023-04-15T03:34:18;10.60;;;3.15;;
33954;SDS011;20233;50.804;7.126;2023-04-15T03:36:44;7.55;;;3.13;;
33954;SDS011;20233;50.804;7.126;2023-04-15T03:39:10;7.28;;;3.45;;
33954;SDS011;20233;50.804;7.126;2023-04-15T03:41:37;6.18;;;3.17;;
33954;SDS011;20233;50.804;7.126;2023-04-15T03:44:03;7.72;;;2.85;;
33954;SDS011;20233;50.804;7.126;2023-04-15T03:46:28;8.93;;;4.03;;
33954;SDS011;20233;50.804;7.126;2023-04-15T03:48:54;8.68;;;3.55;;
33954;SDS011;20233;50.804;7.126;2023-04-15T03:51:20;6.47;;;3.38;;
33954;SDS011;20233;50.804;7.126;2023-04-15T03:53:46;7.90;;;3.50;;
33954;SDS011;20233;50.804;7.126;2023-04-15T03:56:11;7.13;;;3.13;;
33954;SDS011;20233;50.804;7.126;2023-04-15T03:58:38;7.72;;;3.00;;
33954;SDS011;20233;50.804;7.126;2023-04-15T04:01:03;7.65;;;3.95;;
33954;SDS011;20233;50.804;7.126;2023-04-15T04:03:29;8.65;;;3.47;;
33954;SDS011;20233;50.804;7.126;2023-04-15T04:05:55;12.50;;;3.63;;
33954;SDS011;20233;50.804;7.126;2023-04-15T04:08:21;8.13;;;3.80;;
33954;SDS011;20233;50.804;7.126;2023-04-15T04:10:46;7.07;;;3.40;;
33954;SDS011;20233;50.804;7.126;2023-04-15T04:13:12;6.75;;;3.10;;
33954;SDS011;20233;50.804;7.126;2023-04-15T04:15:39;10.13;;;4.00;;
33954;SDS011;20233;50.804;7.126;2023-04-15T04:18:05;6.75;;;3.17;;
33954;SDS011;20233;50.804;7.126;2023-04-15T04:20:30;4.78;;;2.95;;
33954;SDS011;20233;50.804;7.126;2023-04-15T04:22:56;9.63;;;2.95;;
33954;SDS011;20233;50.804;7.126;2023-04-15T04:25:22;12.80;;;4.40;;
33954;SDS011;20233;50.804;7.126;2023-04-15T04:27:48;8.80;;;3.78;;
33954;SDS011;20233;50.804;7.126;2023-04-15T04:30:14;9.13;;;3.17;;
33954;SDS011;20233;50.804;7.126;2023-04-15T04:32:40;7.78;;;3.45;;
33954;SDS011;20233;50.804;7.126;2023-04-15T04:35:05;10.63;;;4.30;;
33954;SDS011;20233;50.804;7.126;2023-04-15T04:37:31;7.53;;;3.75;;
33954;SDS011;20233;50.804;7.126;2023-04-15T04:39:57;10.10;;;5.15;;
33954;SDS011;20233;50.804;7.126;2023-04-15T04:42:22;5.95;;;3.15;;
33954;SDS011;20233;50.804;7.126;2023-04-15T04:44:48;11.40;;;3.80;;
33954;SDS011;20233;50.804;7.126;2023-04-15T04:47:13;7.90;;;3.60;;
33954;SDS011;20233;50.804;7.126;2023-04-15T04:49:40;7.30;;;3.58;;
33954;SDS011;20233;50.804;7.126;2023-04-15T04:52:06;8.32;;;3.53;;
33954;SDS011;20233;50.804;7.126;2023-04-15T04:54:32;8.13;;;3.72;;
33954;SDS011;20233;50.804;7.126;2023-04-15T04:56:57;6.55;;;3.53;;
33954;SDS011;20233;50.804;7.126;2023-04-15T04:59:23;7.45;;;3.78;;
33954;SDS011;20233;50.804;7.126;2023-04-15T05:01:49;8.77;;;3.53;;
33954;SDS011;20233;50.804;7.126;2023-04-15T05:04:15;7.40;;;3.78;;
33954;SDS011;20233;50.804;7.126;2023-04-15T05:06:42;6.90;;;3.97;;
33954;SDS011;20233;50.804;7.126;2023-04-15T05:09:08;6.55;;;3.67;;
33954;SDS011;20233;50.804;7.126;2023-04-15T05:11:33;6.57;;;3.78;;
33954;SDS011;20233;50.804;7.126;2023-04-15T05:13:59;10.80;;;4.57;;
33954;SDS011;20233;50.804;7.126;2023-04-15T05:16:26;7.35;;;3.65;;
33954;SDS011;20233;50.804;7.126;2023-04-15T05:18:51;8.02;;;3.53;;
33954;SDS011;20233;50.804;7.126;2023-04-15T05:21:17;8.10;;;4.05;;
33954;SDS011;20233;50.804;7.126;2023-04-15T05:23:43;8.30;;;4.32;;
33954;SDS011;20233;50.804;7.126;2023-04-15T05:26:09;7.80;;;4.00;;
33954;SDS011;20233;50.804;7.126;2023-04-15T05:28:34;9.48;;;4.53;;
33954;SDS011;20233;50.804;7.126;2023-04-15T05:31:00;8.10;;;3.85;;
33954;SDS011;20233;50.804;7.126;2023-04-15T05:33:25;8.98;;;4.38;;
33954;SDS011;20233;50.804;7.126;2023-04-15T05:35:51;8.80;;;3.75;;
33954;SDS011;20233;50.804;7.126;2023-04-15T05:38:17;7.95;;;4.05;;
33954;SDS011;20233;50.804;7.126;2023-04-15T05:40:42;9.75;;;4.53;;
33954;SDS011;20233;50.804;7.126;2023-04-15T05:43:10;7.57;;;4.13;;
33954;SDS011;20233;50.804;7.126;2023-04-15T05:45:35;11.55;;;4.30;;
33954;SDS011;20233;50.804;7.126;2023-04-15T05:48:01;8.82;;;4.53;;
33954;SDS011;20233;50.804;7.126;2023-04-15T05:50:26;11.27;;;4.47;;
33954;SDS011;20233;50.804;7.126;2023-04-15T05:52:52;6.85;;;3.63;;
33954;SDS011;20233;50.804;7.126;2023-04-15T05:55:17;7.22;;;3.88;;
33954;SDS011;20233;50.804;7.126;2023-04-15T05:57:43;8.70;;;4.30;;
33954;SDS011;20233;50.804;7.126;2023-04-15T06:00:11;9.88;;;4.80;;
33954;SDS011;20233;50.804;7.126;2023-04-15T06:02:37;7.88;;;3.97;;
33954;SDS011;20233;50.804;7.126;2023-04-15T06:05:03;6.22;;;3.90;;
33954;SDS011;20233;50.804;7.126;2023-04-15T06:07:33;8.48;;;4.60;;
33954;SDS011;20233;50.804;7.126;2023-04-15T06:10:00;8.30;;;4.65;;
33954;SDS011;20233;50.804;7.126;2023-04-15T06:12:26;10.95;;;5.38;;
33954;SDS011;20233;50.804;7.126;2023-04-15T06:14:52;8.02;;;4.65;;
33954;SDS011;20233;50.804;7.126;2023-04-15T06:17:18;7.55;;;4.28;;
33954;SDS011;20233;50.804;7.126;2023-04-15T06:19:44;7.20;;;4.30;;
33954;SDS011;20233;50.804;7.126;2023-04-15T06:22:14;7.70;;;4.60;;
33954;SDS011;20233;50.804;7.126;2023-04-15T06:24:41;13.57;;;4.85;;
33954;SDS011;20233;50.804;7.126;2023-04-15T06:27:07;8.55;;;4.40;;
33954;SDS011;20233;50.804;7.126;2023-04-15T06:29:34;8.48;;;4.32;;
33954;SDS011;20233;50.804;7.126;2023-04-15T06:32:01;7.18;;;3.97;;
33954;SDS011;20233;50.804;7.126;2023-04-15T06:34:28;7.30;;;4.05;;
33954;SDS011;20233;50.804;7.126;2023-04-15T06:36:55;11.30;;;3.95;;
33954;SDS011;20233;50.804;7.126;2023-04-15T06:39:21;9.63;;;3.90;;
33954;SDS011;20233;50.804;7.126;2023-04-15T06:41:48;8.20;;;4.30;;
33954;SDS011;20233;50.804;7.126;2023-04-15T06:44:15;7.75;;;4.93;;
33954;SDS011;20233;50.804;7.126;2023-04-15T06:46:41;7.25;;;3.97;;
33954;SDS011;20233;50.804;7.126;2023-04-15T06:49:08;8.27;;;4.43;;
33954;SDS011;20233;50.804;7.126;2023-04-15T06:51:34;9.18;;;5.05;;
33954;SDS011;20233;50.804;7.126;2023-04-15T06:54:00;8.15;;;5.03;;
33954;SDS011;20233;50.804;7.126;2023-04-15T06:56:30;8.50;;;4.20;;
33954;SDS011;20233;50.804;7.126;2023-04-15T06:58:57;9.00;;;5.10;;
33954;SDS011;20233;50.804;7.126;2023-04-15T07:01:24;9.55;;;4.95;;
33954;SDS011;20233;50.804;7.126;2023-04-15T07:03:51;10.98;;;5.07;;
33954;SDS011;20233;50.804;7.126;2023-04-15T07:06:17;7.68;;;5.13;;
33954;SDS011;20233;50.804;7.126;2023-04-15T07:08:44;8.10;;;5.70;;
33954;SDS011;20233;50.804;7.126;2023-04-15T07:11:10;9.93;;;5.28;;
33954;SDS011;20233;50.804;7.126;2023-04-15T07:13:36;7.22;;;4.95;;
33954;SDS011;20233;50.804;7.126;2023-04-15T07:16:03;7.43;;;5.05;;
33954;SDS011;20233;50.804;7.126;2023-04-15T07:18:30;8.18;;;4.93;;
33954;SDS011;20233;50.804;7.126;2023-04-15T07:20:57;9.02;;;5.22;;
33954;SDS011;20233;50.804;7.126;2023-04-15T07:23:25;8.13;;;5.28;;
33954;SDS011;20233;50.804;7.126;2023-04-15T07:25:52;8.45;;;4.50;;
33954;SDS011;20233;50.804;7.126;2023-04-15T07:28:19;7.43;;;4.30;;
33954;SDS011;20233;50.804;7.126;2023-04-15T07:30:45;8.52;;;4.65;;
33954;SDS011;20233;50.804;7.126;2023-04-15T07:33:13;7.47;;;4.40;;
33954;SDS011;20233;50.804;7.126;2023-04-15T07:35:40;10.27;;;4.90;;
33954;SDS011;20233;50.804;7.126;2023-04-15T07:38:08;7.28;;;4.25;;
33954;SDS011;20233;50.804;7.126;2023-04-15T07:40:34;9.68;;;5.00;;
33954;SDS011;20233;50.804;7.126;2023-04-15T07:43:01;10.02;;;4.55;;
33954;SDS011;20233;50.804;7.126;2023-04-15T07:45:29;9.43;;;5.78;;
33954;SDS011;20233;50.804;7.126;2023-04-15T07:47:58;6.82;;;4.57;;
33954;SDS011;20233;50.804;7.126;2023-04-15T07:50:26;8.38;;;4.82;;
33954;SDS011;20233;50.804;7.126;2023-04-15T07:52:53;9.20;;;4.60;;
33954;SDS011;20233;50.804;7.126;2023-04-15T07:55:20;7.47;;;4.70;;
33954;SDS011;20233;50.804;7.126;2023-04-15T07:57:48;7.93;;;4.72;;
33954;SDS011;20233;50.804;7.126;2023-04-15T08:00:15;8.93;;;4.88;;
33954;SDS011;20233;50.804;7.126;2023-04-15T08:02:41;6.63;;;4.25;;
33954;SDS011;20233;50.804;7.126;2023-04-15T08:05:08;7.07;;;4.38;;
33954;SDS011;20233;50.804;7.126;2023-04-15T08:07:36;6.68;;;3.88;;
33954;SDS011;20233;50.804;7.126;2023-04-15T08:10:03;6.00;;;4.05;;
33954;SDS011;20233;50.804;7.126;2023-04-15T08:12:30;5.65;;;3.97;;
33954;SDS011;20233;50.804;7.126;2023-04-15T08:14:57;13.35;;;5.35;;
33954;SDS011;20233;50.804;7.126;2023-04-15T08:17:24;8.75;;;4.30;;
33954;SDS011;20233;50.804;7.126;2023-04-15T08:19:56;7.15;;;4.57;;
33954;SDS011;20233;50.804;7.126;2023-04-15T08:22:23;6.95;;;3.80;;
33954;SDS011;20233;50.804;7.126;2023-04-15T08:24:52;7.45;;;3.97;;
33954;SDS011;20233;50.804;7.126;2023-04-15T08:27:18;7.60;;;3.17;;
33954;SDS011;20233;50.804;7.126;2023-04-15T08:29:45;6.07;;;2.00;;
33954;SDS011;20233;50.804;7.126;2023-04-15T08:32:12;5.82;;;1.67;;
33954;SDS011;20233;50.804;7.126;2023-04-15T08:34:39;4.78;;;1.42;;
33954;SDS011;20233;50.804;7.126;2023-04-15T08:37:05;3.33;;;1.20;;
33954;SDS011;20233;50.804;7.126;2023-04-15T08:39:32;1.98;;;1.00;;
33954;SDS011;20233;50.804;7.126;2023-04-15T08:42:00;3.58;;;0.98;;
33954;SDS011;20233;50.804;7.126;2023-04-15T08:44:32;3.57;;;0.73;;
33954;SDS011;20233;50.804;7.126;2023-04-15T08:47:02;2.55;;;0.63;;
33954;SDS011;20233;50.804;7.126;2023-04-15T08:49:38;1.90;;;0.73;;
33954;SDS011;20233;50.804;7.126;2023-04-15T08:52:09;1.90;;;0.50;;
33954;SDS011;20233;50.804;7.126;2023-04-15T08:54:36;2.63;;;0.55;;
33954;SDS011;20233;50.804;7.126;2023-04-15T08:57:03;2.63;;;1.30;;
33954;SDS011;20233;50.804;7.126;2023-04-15T08:59:30;2.65;;;0.50;;
33954;SDS011;20233;50.804;7.126;2023-04-15T09:01:58;1.10;;;0.57;;
33954;SDS011;20233;50.804;7.126;2023-04-15T09:04:26;3.63;;;0.20;;
33954;SDS011;20233;50.804;7.126;2023-04-15T09:06:52;1.75;;;0.40;;
33954;SDS011;20233;50.804;7.126;2023-04-15T09:09:19;1.77;;;0.30;;
33954;SDS011;20233;50.804;7.126;2023-04-15T09:11:46;2.67;;;0.40;;
33954;SDS011;20233;50.804;7.126;2023-04-15T09:14:14;1.80;;;0.50;;
33954;SDS011;20233;50.804;7.126;2023-04-15T09:16:59;2.60;;;0.50;;
33954;SDS011;20233;50.804;7.126;2023-04-15T09:19:28;3.25;;;0.30;;
33954;SDS011;20233;50.804;7.126;2023-04-15T09:21:57;2.17;;;0.47;;
33954;SDS011;20233;50.804;7.126;2023-04-15T09:27:03;1.83;;;0.30;;
33954;SDS011;20233;50.804;7.126;2023-04-15T09:29:30;2.85;;;0.30;;
33954;SDS011;20233;50.804;7.126;2023-04-15T09:32:08;2.55;;;0.30;;
33954;SDS011;20233;50.804;7.126;2023-04-15T09:34:38;1.00;;;0.20;;
33954;SDS011;20233;50.804;7.126;2023-04-15T09:37:05;1.98;;;0.20;;
33954;SDS011;20233;50.804;7.126;2023-04-15T09:39:50;1.40;;;0.30;;
33954;SDS011;20233;50.804;7.126;2023-04-15T09:42:17;2.38;;;0.40;;
33954;SDS011;20233;50.804;7.126;2023-04-15T09:44:51;1.15;;;0.20;;
33954;SDS011;20233;50.804;7.126;2023-04-15T09:47:28;1.55;;;0.30;;
33954;SDS011;20233;50.804;7.126;2023-04-15T09:49:56;2.65;;;0.20;;
33954;SDS011;20233;50.804;7.126;2023-04-15T09:52:23;1.08;;;0.20;;
33954;SDS011;20233;50.804;7.126;2023-04-15T09:54:52;3.67;;;0.60;;
33954;SDS011;20233;50.804;7.126;2023-04-15T09:57:23;1.02;;;0.30;;
33954;SDS011;20233;50.804;7.126;2023-04-15T09:59:50;2.47;;;0.30;;
33954;SDS011;20233;50.804;7.126;2023-04-15T10:02:17;1.42;;;0.20;;
33954;SDS011;20233;50.804;7.126;2023-04-15T10:04:47;2.08;;;0.40;;
33954;SDS011;20233;50.804;7.126;2023-04-15T10:07:14;1.30;;;0.30;;
33954;SDS011;20233;50.804;7.126;2023-04-15T10:09:45;2.03;;;0.30;;
33954;SDS011;20233;50.804;7.126;2023-04-15T10:12:14;1.63;;;0.30;;
33954;SDS011;20233;50.804;7.126;2023-04-15T10:14:42;2.65;;;0.52;;
33954;SDS011;20233;50.804;7.126;2023-04-15T10:17:10;2.20;;;0.20;;
33954;SDS011;20233;50.804;7.126;2023-04-15T10:19:37;9.52;;;1.48;;
33954;SDS011;20233;50.804;7.126;2023-04-15T10:22:05;1.85;;;0.30;;
33954;SDS011;20233;50.804;7.126;2023-04-15T10:24:34;5.53;;;0.52;;
33954;SDS011;20233;50.804;7.126;2023-04-15T10:27:03;4.95;;;0.50;;
33954;SDS011;20233;50.804;7.126;2023-04-15T10:29:32;2.15;;;0.50;;
33954;SDS011;20233;50.804;7.126;2023-04-15T10:32:00;1.50;;;0.40;;
33954;SDS011;20233;50.804;7.126;2023-04-15T10:34:28;1.02;;;0.30;;
33954;SDS011;20233;50.804;7.126;2023-04-15T10:37:02;1.45;;;0.50;;
33954;SDS011;20233;50.804;7.126;2023-04-15T10:39:42;1.75;;;0.20;;
33954;SDS011;20233;50.804;7.126;2023-04-15T10:44:37;1.73;;;0.40;;
33954;SDS011;20233;50.804;7.126;2023-04-15T10:47:12;5.20;;;0.43;;
33954;SDS011;20233;50.804;7.126;2023-04-15T10:49:51;1.48;;;0.35;;
33954;SDS011;20233;50.804;7.126;2023-04-15T10:52:25;1.83;;;0.43;;
33954;SDS011;20233;50.804;7.126;2023-04-15T10:55:02;2.33;;;0.68;;
33954;SDS011;20233;50.804;7.126;2023-04-15T10:57:43;3.00;;;0.32;;
33954;SDS011;20233;50.804;7.126;2023-04-15T11:00:11;3.13;;;1.25;;
33954;SDS011;20233;50.804;7.126;2023-04-15T11:02:40;3.38;;;1.80;;
33954;SDS011;20233;50.804;7.126;2023-04-15T11:05:09;2.47;;;1.90;;
33954;SDS011;20233;50.804;7.126;2023-04-15T11:07:39;5.95;;;2.10;;
33954;SDS011;20233;50.804;7.126;2023-04-15T11:12:45;2.60;;;1.70;;
33954;SDS011;20233;50.804;7.126;2023-04-15T11:18:07;1.95;;;0.90;;
33954;SDS011;20233;50.804;7.126;2023-04-15T11:20:41;3.47;;;1.65;;
33954;SDS011;20233;50.804;7.126;2023-04-15T11:23:19;2.33;;;1.38;;
33954;SDS011;20233;50.804;7.126;2023-04-15T11:26:13;2.55;;;1.50;;
33954;SDS011;20233;50.804;7.126;2023-04-15T11:28:41;2.10;;;1.20;;
33954;SDS011;20233;50.804;7.126;2023-04-15T11:31:15;2.65;;;1.20;;
33954;SDS011;20233;50.804;7.126;2023-04-15T11:33:44;2.47;;;1.10;;
33954;SDS011;20233;50.804;7.126;2023-04-15T11:36:22;2.58;;;1.40;;
33954;SDS011;20233;50.804;7.126;2023-04-15T11:38:52;2.42;;;1.30;;
33954;SDS011;20233;50.804;7.126;2023-04-15T11:41:19;1.50;;;0.80;;
33954;SDS011;20233;50.804;7.126;2023-04-15T11:43:47;2.28;;;1.08;;
33954;SDS011;20233;50.804;7.126;2023-04-15T11:46:15;2.35;;;0.90;;
33954;SDS011;20233;50.804;7.126;2023-04-15T11:48:42;2.00;;;0.95;;
33954;SDS011;20233;50.804;7.126;2023-04-15T11:51:11;2.28;;;1.17;;
33954;SDS011;20233;50.804;7.126;2023-04-15T11:53:42;2.95;;;1.00;;
33954;SDS011;20233;50.804;7.126;2023-04-15T11:58:45;2.20;;;0.93;;
33954;SDS011;20233;50.804;7.126;2023-04-15T12:01:15;4.00;;;1.00;;
33954;SDS011;20233;50.804;7.126;2023-04-15T12:03:47;1.80;;;0.95;;
33954;SDS011;20233;50.804;7.126;2023-04-15T12:06:17;1.83;;;0.93;;
33954;SDS011;20233;50.804;7.126;2023-04-15T12:11:27;1.63;;;0.50;;
33954;SDS011;20233;50.804;7.126;2023-04-15T12:13:58;1.98;;;1.27;;
33954;SDS011;20233;50.804;7.126;2023-04-15T12:16:30;5.47;;;2.05;;
33954;SDS011;20233;50.804;7.126;2023-04-15T12:18:59;3.05;;;0.80;;
33954;SDS011;20233;50.804;7.126;2023-04-15T12:24:00;1.73;;;1.23;;
33954;SDS011;20233;50.804;7.126;2023-04-15T12:26:33;2.33;;;0.60;;
33954;SDS011;20233;50.804;7.126;2023-04-15T12:29:04;2.05;;;1.27;;
33954;SDS011;20233;50.804;7.126;2023-04-15T12:31:33;2.45;;;0.80;;
33954;SDS011;20233;50.804;7.126;2023-04-15T12:34:01;2.50;;;1.10;;
33954;SDS011;20233;50.804;7.126;2023-04-15T12:36:28;1.48;;;0.60;;
33954;SDS011;20233;50.804;7.126;2023-04-15T12:39:01;1.75;;;0.70;;
33954;SDS011;20233;50.804;7.126;2023-04-15T12:41:30;1.60;;;0.85;;
33954;SDS011;20233;50.804;7.126;2023-04-15T12:43:58;2.90;;;1.50;;
33954;SDS011;20233;50.804;7.126;2023-04-15T12:46:25;3.03;;;1.20;;
33954;SDS011;20233;50.804;7.126;2023-04-15T12:48:51;1.80;;;1.20;;
33954;SDS011;20233;50.804;7.126;2023-04-15T12:51:18;2.00;;;1.30;;
33954;SDS011;20233;50.804;7.126;2023-04-15T12:53:48;2.80;;;1.30;;
33954;SDS011;20233;50.804;7.126;2023-04-15T12:56:15;2.33;;;1.40;;
33954;SDS011;20233;50.804;7.126;2023-04-15T12:58:42;2.50;;;1.35;;
33954;SDS011;20233;50.804;7.126;2023-04-15T13:01:08;4.00;;;1.30;;
33954;SDS011;20233;50.804;7.126;2023-04-15T13:03:35;2.08;;;1.27;;
33954;SDS011;20233;50.804;7.126;2023-04-15T13:06:02;2.97;;;1.40;;
33954;SDS011;20233;50.804;7.126;2023-04-15T13:08:29;3.20;;;1.23;;
33954;SDS011;20233;50.804;7.126;2023-04-15T13:10:56;2.42;;;1.70;;
33954;SDS011;20233;50.804;7.126;2023-04-15T13:13:23;2.55;;;1.77;;
33954;SDS011;20233;50.804;7.126;2023-04-15T13:15:50;3.15;;;2.10;;
33954;SDS011;20233;50.804;7.126;2023-04-15T13:18:16;3.45;;;2.17;;
33954;SDS011;20233;50.804;7.126;2023-04-15T13:20:43;3.08;;;1.80;;
33954;SDS011;20233;50.804;7.126;2023-04-15T13:23:09;2.97;;;1.83;;
33954;SDS011;20233;50.804;7.126;2023-04-15T13:25:35;3.72;;;2.38;;
33954;SDS011;20233;50.804;7.126;2023-04-15T13:28:02;2.50;;;1.90;;
33954;SDS011;20233;50.804;7.126;2023-04-15T13:30:29;3.03;;;2.20;;
33954;SDS011;20233;50.804;7.126;2023-04-15T13:32:55;3.63;;;2.63;;
33954;SDS011;20233;50.804;7.126;2023-04-15T13:35:22;4.05;;;2.50;;
33954;SDS011;20233;50.804;7.126;2023-04-15T13:37:48;3.95;;;3.20;;
33954;SDS011;20233;50.804;7.126;2023-04-15T13:40:15;4.13;;;3.30;;
33954;SDS011;20233;50.804;7.126;2023-04-15T13:42:41;5.20;;;3.78;;
33954;SDS011;20233;50.804;7.126;2023-04-15T13:45:07;5.05;;;3.50;;
33954;SDS011;20233;50.804;7.126;2023-04-15T13:47:36;5.10;;;3.88;;
33954;SDS011;20233;50.804;7.126;2023-04-15T13:50:04;4.75;;;4.13;;
33954;SDS011;20233;50.804;7.126;2023-04-15T13:52:31;4.07;;;3.50;;
33954;SDS011;20233;50.804;7.126;2023-04-15T13:54:58;5.63;;;4.18;;
33954;SDS011;20233;50.804;7.126;2023-04-15T13:57:24;9.48;;;4.65;;
33954;SDS011;20233;50.804;7.126;2023-04-15T13:59:51;4.97;;;4.40;;
33954;SDS011;20233;50.804;7.126;2023-04-15T14:02:20;5.85;;;4.80;;
33954;SDS011;20233;50.804;7.126;2023-04-15T14:04:47;7.07;;;5.47;;
33954;SDS011;20233;50.804;7.126;2023-04-15T14:07:14;7.32;;;6.15;;
33954;SDS011;20233;50.804;7.126;2023-04-15T14:09:40;8.20;;;6.72;;
33954;SDS011;20233;50.804;7.126;2023-04-15T14:12:06;7.97;;;6.90;;
33954;SDS011;20233;50.804;7.126;2023-04-15T14:14:34;7.95;;;6.45;;
33954;SDS011;20233;50.804;7.126;2023-04-15T14:17:01;7.78;;;6.45;;
33954;SDS011;20233;50.804;7.126;2023-04-15T14:19:30;5.90;;;4.80;;
33954;SDS011;20233;50.804;7.126;2023-04-15T14:21:57;7.50;;;6.65;;
33954;SDS011;20233;50.804;7.126;2023-04-15T14:24:27;12.63;;;9.23;;
33954;SDS011;20233;50.804;7.126;2023-04-15T14:26:54;7.10;;;5.20;;
33954;SDS011;20233;50.804;7.126;2023-04-15T14:29:21;11.00;;;7.03;;
33954;SDS011;20233;50.804;7.126;2023-04-15T14:31:48;8.77;;;7.07;;
33954;SDS011;20233;50.804;7.126;2023-04-15T14:34:15;8.32;;;6.20;;
33954;SDS011;20233;50.804;7.126;2023-04-15T14:36:42;7.80;;;6.78;;
33954;SDS011;20233;50.804;7.126;2023-04-15T14:39:09;7.97;;;6.97;;
33954;SDS011;20233;50.804;7.126;2023-04-15T14:41:35;8.35;;;6.10;;
33954;SDS011;20233;50.804;7.126;2023-04-15T14:44:02;8.13;;;6.28;;
33954;SDS011;20233;50.804;7.126;2023-04-15T14:46:29;8.13;;;5.97;;
33954;SDS011;20233;50.804;7.126;2023-04-15T14:48:56;9.10;;;6.72;;
33954;SDS011;20233;50.804;7.126;2023-04-15T14:51:23;7.95;;;6.70;;
33954;SDS011;20233;50.804;7.126;2023-04-15T14:53:50;8.57;;;6.90;;
33954;SDS011;20233;50.804;7.126;2023-04-15T14:56:17;7.82;;;6.90;;
33954;SDS011;20233;50.804;7.126;2023-04-15T14:58:43;9.35;;;6.22;;
33954;SDS011;20233;50.804;7.126;2023-04-15T15:01:10;9.38;;;6.45;;
33954;SDS011;20233;50.804;7.126;2023-04-15T15:03:36;7.68;;;6.10;;
33954;SDS011;20233;50.804;7.126;2023-04-15T15:06:04;5.95;;;4.90;;
33954;SDS011;20233;50.804;7.126;2023-04-15T15:08:31;7.93;;;5.82;;